Time;durP1;ratioP1;P1;durP2;ratioP2;P2;SDS_P1;SDS_P2;PMS_P1;PMS_P2;Temp;Humidity;BMP_temperature;BMP_pressure;BME280_temperature;BME280_humidity;BME280_pressure;Samples;Min_cycle;Max_cycle;Signal;HPM_P1;HPM_P2
2023/09/14 00:00:48;;;;;;;27.67;19.83;;;18.60;99.90;;;;;;5014365;28;20188;-81
2023/09/14 00:03:30;;;;;;;28.93;20.07;;;18.60;99.90;;;;;;4997863;28;20211;-83
2023/09/14 00:06:31;;;;;;;29.67;20.30;;;18.60;99.90;;;;;;4997222;28;20693;-84
2023/09/14 00:09:15;;;;;;;31.77;21.60;;;18.50;99.90;;;;;;5012243;28;20570;-83
2023/09/14 00:11:46;;;;;;;31.50;22.07;;;18.40;99.90;;;;;;4997918;28;20196;-83
2023/09/14 00:14:20;;;;;;;31.90;21.17;;;18.40;99.90;;;;;;5012373;28;20207;-80
2023/09/14 00:16:58;;;;;;;30.30;21.40;;;18.40;99.90;;;;;;5014978;28;20602;-83
2023/09/14 00:19:29;;;;;;;31.63;21.53;;;18.40;99.90;;;;;;4997593;28;20228;-83
2023/09/14 00:22:00;;;;;;;36.13;22.90;;;18.40;99.90;;;;;;5012751;28;20239;-79
2023/09/14 00:24:31;;;;;;;30.70;20.97;;;18.30;99.90;;;;;;4996849;28;20193;-83
2023/09/14 00:27:15;;;;;;;33.80;22.87;;;18.30;99.90;;;;;;5012991;28;20199;-83
2023/09/14 00:29:47;;;;;;;35.87;23.73;;;18.20;99.90;;;;;;5013846;28;20275;-82
2023/09/14 00:32:18;;;;;;;38.00;24.23;;;18.20;99.90;;;;;;5013774;28;20250;-83
2023/09/14 00:34:51;;;;;;;38.47;25.00;;;18.30;99.90;;;;;;4996853;28;20219;-83
2023/09/14 00:37:25;;;;;;;33.77;23.20;;;18.20;99.90;;;;;;5011955;28;20319;-83
2023/09/14 00:40:14;;;;;;;38.20;23.73;;;18.20;99.90;;;;;;4997518;28;20640;-81
2023/09/14 00:42:50;;;;;;;39.77;24.10;;;18.10;99.90;;;;;;5012661;28;20270;-84
2023/09/14 00:45:44;;;;;;;38.60;25.03;;;18.10;99.90;;;;;;5009500;28;20291;-82
2023/09/14 00:48:37;;;;;;;38.07;24.10;;;18.20;99.90;;;;;;4935880;29;20626;-83
2023/09/14 00:51:31;;;;;;;36.80;24.23;;;18.20;99.90;;;;;;4937989;29;20226;-84
2023/09/14 00:54:25;;;;;;;37.30;25.17;;;18.20;99.90;;;;;;4953512;29;20234;-84
2023/09/14 00:57:05;;;;;;;34.13;23.23;;;18.10;99.90;;;;;;4952862;29;20292;-80
2023/09/14 00:59:41;;;;;;;34.50;23.53;;;18.20;99.90;;;;;;4953389;29;20202;-83
2023/09/14 01:02:17;;;;;;;35.40;23.17;;;18.20;99.90;;;;;;4952493;29;20322;-84
2023/09/14 01:04:49;;;;;;;33.33;23.53;;;18.20;99.90;;;;;;4952645;29;20257;-81
2023/09/14 01:07:26;;;;;;;39.40;23.57;;;18.20;99.90;;;;;;4935807;29;20218;-82
2023/09/14 01:09:59;;;;;;;36.37;23.53;;;18.10;99.90;;;;;;4950989;29;20206;-82
2023/09/14 01:12:32;;;;;;;38.23;23.63;;;18.20;99.90;;;;;;4952014;29;20591;-84
2023/09/14 01:15:24;;;;;;;34.27;22.70;;;18.20;99.90;;;;;;4936634;29;20214;-84
2023/09/14 01:18:19;;;;;;;34.77;23.57;;;18.20;99.90;;;;;;4952326;28;20277;-83
2023/09/14 01:21:11;;;;;;;36.00;23.67;;;18.10;99.90;;;;;;4952608;29;20232;-82
2023/09/14 01:24:10;;;;;;;33.37;22.73;;;18.10;99.90;;;;;;4950813;29;20194;-84
2023/09/14 01:26:42;;;;;;;35.07;23.30;;;18.10;99.90;;;;;;5002762;28;20219;-83
2023/09/14 01:29:16;;;;;;;35.30;22.13;;;18.10;99.90;;;;;;5011114;28;20220;-83
2023/09/14 01:31:58;;;;;;;33.57;22.90;;;18.10;99.90;;;;;;5010187;28;20662;-83
2023/09/14 01:34:53;;;;;;;33.40;21.60;;;18.10;99.90;;;;;;5011428;28;20697;-83
2023/09/14 01:37:29;;;;;;;35.07;22.03;;;18.00;99.90;;;;;;4995823;28;20286;-84
2023/09/14 01:39:58;;;;;;;29.50;20.60;;;18.10;99.90;;;;;;5011551;28;20192;-83
2023/09/14 01:42:35;;;;;;;34.73;21.97;;;18.10;99.90;;;;;;4996240;28;20640;-83
2023/09/14 01:45:23;;;;;;;30.50;20.50;;;18.20;99.90;;;;;;5010755;28;20204;-83
2023/09/14 01:47:56;;;;;;;31.33;21.47;;;18.20;99.90;;;;;;5012766;28;20179;-83
2023/09/14 01:50:40;;;;;;;32.53;21.50;;;18.20;99.90;;;;;;5009330;28;20702;-84
2023/09/14 01:53:10;;;;;;;31.67;20.77;;;18.20;99.90;;;;;;5010251;28;20548;-83
2023/09/14 01:55:47;;;;;;;31.30;20.57;;;18.30;99.90;;;;;;5010872;28;20473;-83
2023/09/14 01:58:34;;;;;;;37.37;21.13;;;18.20;99.90;;;;;;4920771;29;20202;-84
2023/09/14 02:01:10;;;;;;;30.50;20.77;;;18.30;99.90;;;;;;4919496;29;20214;-84
2023/09/14 02:03:48;;;;;;;29.53;20.57;;;18.40;99.90;;;;;;4935681;29;20297;-83
2023/09/14 02:06:27;;;;;;;28.33;19.83;;;18.50;99.90;;;;;;4951701;29;20680;-82
2023/09/14 02:09:02;;;;;;;28.27;19.33;;;18.40;99.90;;;;;;4952140;29;20205;-83
2023/09/14 02:12:02;;;;;;;31.77;20.07;;;18.30;99.90;;;;;;4935846;29;20587;-81
2023/09/14 02:14:55;;;;;;;29.17;19.23;;;18.30;99.90;;;;;;4934912;29;20209;-81
2023/09/14 02:17:41;;;;;;;29.30;18.70;;;18.30;99.90;;;;;;4952190;29;20210;-82
2023/09/14 02:20:39;;;;;;;30.80;20.33;;;18.20;99.90;;;;;;4935166;29;20206;-81
2023/09/14 02:23:19;;;;;;;29.07;19.20;;;18.30;99.90;;;;;;4935598;29;20660;-81
2023/09/14 02:25:55;;;;;;;26.87;18.63;;;18.30;99.90;;;;;;4951789;29;20313;-81
2023/09/14 02:28:37;;;;;;;26.77;18.73;;;18.20;99.90;;;;;;4953233;28;20203;-83
2023/09/14 02:31:15;;;;;;;27.37;17.80;;;18.30;99.90;;;;;;4939109;29;20265;-81
2023/09/14 02:34:12;;;;;;;25.37;17.77;;;18.30;99.90;;;;;;4938334;29;20337;-83
2023/09/14 02:37:02;;;;;;;24.70;17.53;;;18.20;99.90;;;;;;4994956;28;20236;-83
2023/09/14 02:39:52;;;;;;;;;;;;;;;;;;;;;
2023/09/14 02:42:29;;;;;;;24.37;16.57;;;18.20;99.90;;;;;;4998652;28;20280;-80
2023/09/14 02:48:25;;;;;;;23.67;16.97;;;18.30;99.90;;;;;;4956967;29;20210;-83
2023/09/14 02:51:05;;;;;;;25.10;17.33;;;18.20;99.90;;;;;;4939700;29;20811;-80
2023/09/14 02:53:43;;;;;;;23.17;16.27;;;18.10;99.90;;;;;;4922993;29;20233;-83
2023/09/14 02:56:24;;;;;;;27.33;17.70;;;18.10;99.90;;;;;;4954251;29;20237;-80
2023/09/14 02:59:04;;;;;;;24.10;17.03;;;18.00;99.90;;;;;;4923890;29;20269;-84
2023/09/14 03:01:35;;;;;;;27.03;17.27;;;18.00;99.90;;;;;;4922927;29;20198;-83
2023/09/14 03:04:09;;;;;;;24.07;15.93;;;18.10;99.90;;;;;;4939061;29;20257;-83
2023/09/14 03:06:54;;;;;;;24.80;15.80;;;18.20;99.90;;;;;;4923694;29;20992;-82
2023/09/14 03:09:33;;;;;;;20.07;14.97;;;18.10;99.90;;;;;;4923693;29;20212;-80
2023/09/14 03:12:15;;;;;;;22.93;14.67;;;18.00;99.90;;;;;;4938749;29;20203;-79
2023/09/14 03:14:57;;;;;;;25.13;14.87;;;18.10;99.90;;;;;;4939087;29;20190;-82
2023/09/14 03:17:36;;;;;;;21.23;15.10;;;17.90;99.90;;;;;;4999509;28;20196;-80
2023/09/14 03:20:24;;;;;;;19.20;13.90;;;17.80;99.90;;;;;;4999042;28;20220;-80
2023/09/14 03:22:59;;;;;;;22.07;14.80;;;17.90;99.90;;;;;;5015178;28;20188;-79
2023/09/14 03:25:42;;;;;;;20.90;14.03;;;17.90;99.90;;;;;;4999525;28;20515;-79
2023/09/14 03:28:13;;;;;;;22.50;14.50;;;18.00;99.90;;;;;;5013282;28;20215;-78
2023/09/14 03:30:48;;;;;;;20.23;14.20;;;18.00;99.90;;;;;;4998243;28;20606;-80
2023/09/14 03:33:19;;;;;;;23.03;14.43;;;17.90;99.90;;;;;;4997899;28;20677;-80
2023/09/14 03:35:51;;;;;;;19.07;13.60;;;18.00;99.90;;;;;;5014691;28;20224;-80
2023/09/14 03:38:53;;;;;;;19.10;13.10;;;18.00;99.90;;;;;;4998321;28;20231;-83
2023/09/14 03:41:36;;;;;;;17.40;12.63;;;18.00;99.90;;;;;;4976504;28;20252;-82
2023/09/14 03:44:08;;;;;;;20.40;13.10;;;18.00;99.90;;;;;;4975987;28;20328;-85
2023/09/14 03:46:42;;;;;;;21.20;12.77;;;18.00;99.90;;;;;;4976733;28;20223;-80
2023/09/14 03:49:16;;;;;;;17.43;12.70;;;18.00;99.90;;;;;;4977019;28;20306;-83
2023/09/14 03:51:52;;;;;;;18.67;12.43;;;17.90;99.90;;;;;;4977496;28;20220;-81
2023/09/14 03:54:30;;;;;;;17.30;12.23;;;17.90;99.90;;;;;;4977194;28;20200;-83
2023/09/14 03:57:14;;;;;;;17.53;12.13;;;17.90;99.90;;;;;;4977982;28;20224;-83
2023/09/14 03:59:47;;;;;;;19.50;11.67;;;17.80;99.90;;;;;;4977158;28;20224;-83
2023/09/14 04:02:24;;;;;;;18.07;11.40;;;17.90;99.90;;;;;;4961613;28;20510;-82
2023/09/14 04:04:58;;;;;;;17.67;12.17;;;17.80;99.90;;;;;;4977041;28;20204;-83
2023/09/14 04:07:36;;;;;;;16.20;11.83;;;17.90;99.90;;;;;;4976325;28;20199;-80
2023/09/14 04:10:35;;;;;;;19.23;11.90;;;17.90;99.90;;;;;;4975915;28;20201;-81
2023/09/14 04:13:33;;;;;;;17.07;11.50;;;17.80;99.90;;;;;;4977350;28;20686;-81
2023/09/14 04:16:28;;;;;;;23.30;12.20;;;17.90;99.90;;;;;;4974697;28;20232;-81
2023/09/14 04:19:03;;;;;;;17.00;11.43;;;17.80;99.90;;;;;;5002124;28;20282;-81
2023/09/14 04:21:33;;;;;;;15.77;11.37;;;17.90;99.90;;;;;;5014148;28;20208;-81
2023/09/14 04:24:19;;;;;;;16.17;11.30;;;17.90;99.90;;;;;;4998109;28;20200;-83
2023/09/14 04:27:08;;;;;;;15.07;10.27;;;17.90;99.90;;;;;;4992004;28;20205;-82
2023/09/14 04:29:45;;;;;;;16.20;10.23;;;17.90;99.90;;;;;;4996479;28;20242;-83
2023/09/14 04:32:14;;;;;;;16.83;10.33;;;18.00;99.90;;;;;;4996446;28;20215;-80
2023/09/14 04:34:50;;;;;;;14.93;10.33;;;17.90;99.90;;;;;;4996429;28;20196;-82
2023/09/14 04:37:36;;;;;;;14.80;10.20;;;18.00;99.90;;;;;;5011332;28;20702;-82
2023/09/14 04:40:08;;;;;;;14.83;9.87;;;17.90;99.90;;;;;;4995751;28;20659;-83
2023/09/14 04:42:39;;;;;;;13.50;9.77;;;17.90;99.90;;;;;;4996397;28;20251;-80
2023/09/14 04:45:19;;;;;;;11.07;9.07;;;17.80;99.90;;;;;;4996386;28;20228;-80
2023/09/14 04:47:51;;;;;;;13.70;8.97;;;17.80;99.90;;;;;;4996124;28;20211;-79
2023/09/14 04:50:30;;;;;;;12.47;9.30;;;18.00;99.90;;;;;;5013777;28;20647;-81
2023/09/14 04:53:14;;;;;;;11.63;8.77;;;17.90;99.90;;;;;;5013344;28;20191;-79
2023/09/14 04:55:45;;;;;;;14.47;9.33;;;17.80;99.90;;;;;;4995796;28;20636;-81
2023/09/14 04:58:24;;;;;;;14.17;9.30;;;17.80;99.90;;;;;;5011417;28;20241;-80
2023/09/14 05:01:05;;;;;;;13.00;8.77;;;17.70;99.90;;;;;;4996137;28;20223;-79
2023/09/14 05:03:40;;;;;;;13.10;8.57;;;17.70;99.90;;;;;;4996157;28;20200;-80
2023/09/14 05:06:14;;;;;;;13.63;8.67;;;17.70;99.90;;;;;;5012046;28;20220;-79
2023/09/14 05:08:43;;;;;;;14.27;8.73;;;17.70;99.90;;;;;;5012136;28;20191;-82
2023/09/14 05:11:14;;;;;;;12.43;8.27;;;17.70;99.90;;;;;;4996890;28;20196;-79
2023/09/14 05:13:48;;;;;;;13.50;8.03;;;17.70;99.90;;;;;;5013001;28;20182;-83
2023/09/14 05:16:27;;;;;;;11.93;7.57;;;17.90;99.90;;;;;;5012491;28;20314;-82
2023/09/14 05:19:01;;;;;;;13.13;8.10;;;17.90;99.90;;;;;;5013496;28;20184;-80
2023/09/14 05:21:44;;;;;;;11.73;7.60;;;18.00;99.90;;;;;;4996474;28;20247;-80
2023/09/14 05:24:16;;;;;;;12.53;7.83;;;18.10;99.90;;;;;;5011976;28;20561;-81
2023/09/14 05:26:50;;;;;;;12.27;7.60;;;17.90;99.90;;;;;;4996255;28;20192;-81
2023/09/14 05:29:23;;;;;;;14.33;7.77;;;17.90;99.90;;;;;;4994580;28;20227;-82
2023/09/14 05:31:55;;;;;;;11.23;7.43;;;18.00;99.90;;;;;;5011550;28;20192;-83
2023/09/14 05:34:23;;;;;;;9.10;6.70;;;18.00;99.90;;;;;;5010850;28;20295;-83
2023/09/14 05:36:52;;;;;;;9.87;6.17;;;18.00;99.90;;;;;;4995268;28;20231;-84
2023/09/14 05:39:21;;;;;;;10.37;6.47;;;17.90;99.90;;;;;;5011398;28;20634;-83
2023/09/14 05:41:55;;;;;;;13.20;6.73;;;17.90;99.90;;;;;;5013025;28;20219;-83
2023/09/14 05:44:29;;;;;;;12.87;6.90;;;17.90;99.90;;;;;;5012035;28;20223;-83
2023/09/14 05:47:17;;;;;;;10.43;6.17;;;17.90;99.90;;;;;;5010367;28;20294;-80
2023/09/14 05:49:49;;;;;;;8.47;6.27;;;18.00;99.90;;;;;;5010788;28;20188;-83
2023/09/14 05:52:35;;;;;;;7.93;5.90;;;18.00;99.90;;;;;;5012260;28;20216;-83
2023/09/14 05:55:06;;;;;;;9.10;5.70;;;18.00;99.90;;;;;;5011073;28;20531;-80
2023/09/14 05:57:42;;;;;;;8.67;5.40;;;18.00;99.90;;;;;;5010927;28;20705;-83
2023/09/14 06:00:20;;;;;;;7.60;5.13;;;18.10;99.90;;;;;;5012032;28;20210;-83
2023/09/14 06:02:54;;;;;;;8.57;5.20;;;18.10;99.90;;;;;;5011256;28;20262;-81
2023/09/14 06:05:40;;;;;;;8.50;4.80;;;18.00;99.90;;;;;;5012642;28;20196;-83
2023/09/14 06:08:12;;;;;;;8.03;4.80;;;18.00;99.90;;;;;;5012688;28;20184;-82
2023/09/14 06:10:46;;;;;;;7.33;4.77;;;18.00;99.90;;;;;;5011252;28;20192;-80
2023/09/14 06:13:20;;;;;;;8.67;4.53;;;18.00;99.90;;;;;;5006935;28;20201;-82
2023/09/14 06:15:51;;;;;;;6.43;4.60;;;18.00;99.90;;;;;;4992299;28;20224;-81
2023/09/14 06:18:27;;;;;;;5.80;4.37;;;18.10;99.90;;;;;;5006962;28;20300;-81
2023/09/14 06:20:57;;;;;;;8.17;4.20;;;18.20;99.90;;;;;;5007200;28;20679;-83
2023/09/14 06:23:25;;;;;;;6.73;4.30;;;18.20;99.90;;;;;;4991556;28;20675;-81
2023/09/14 06:25:56;;;;;;;5.53;3.93;;;18.10;99.90;;;;;;4991873;28;20240;-83
2023/09/14 06:28:25;;;;;;;6.27;4.07;;;18.20;99.90;;;;;;4991655;28;20185;-84
2023/09/14 06:30:55;;;;;;;6.87;4.20;;;18.10;99.90;;;;;;4991919;28;20549;-82
2023/09/14 06:33:31;;;;;;;15.10;4.77;;;18.10;99.90;;;;;;4992694;28;20545;-82
2023/09/14 06:36:03;;;;;;;5.50;3.83;;;18.10;99.90;;;;;;4992600;28;20244;-79
2023/09/14 06:38:33;;;;;;;6.10;3.70;;;18.10;99.90;;;;;;4992509;28;20258;-78
2023/09/14 06:41:06;;;;;;;6.93;4.00;;;18.30;99.90;;;;;;4990949;28;20636;-80
2023/09/14 06:43:57;;;;;;;5.40;3.30;;;18.30;99.90;;;;;;5004986;28;20197;-83
2023/09/14 06:46:33;;;;;;;5.00;3.43;;;18.50;99.90;;;;;;4993277;28;20189;-81
2023/09/14 06:49:07;;;;;;;5.97;3.60;;;18.60;99.90;;;;;;4989792;28;20203;-81
2023/09/14 06:52:13;;;;;;;6.17;4.37;;;18.60;99.90;;;;;;4989291;28;20228;-84
2023/09/14 06:55:24;;;;;;;6.13;3.40;;;18.70;99.90;;;;;;4948230;29;20210;-80
2023/09/14 06:58:30;;;;;;;;;;;;;;;;;;;;;
2023/09/14 07:02:13;;;;;;;;;;;;;;;;;;;;;
2023/09/14 07:05:30;;;;;;;5.17;3.47;;;19.00;99.90;;;;;;4893924;29;20338;-84
2023/09/14 07:08:46;;;;;;;4.40;3.03;;;19.30;99.90;;;;;;4909856;29;20324;-86
2023/09/14 07:12:02;;;;;;;6.27;2.73;;;19.50;99.90;;;;;;4907688;29;20299;-86
2023/09/14 07:14:44;;;;;;;5.63;2.87;;;19.60;99.90;;;;;;4908996;29;20288;-81
2023/09/14 07:17:22;;;;;;;4.30;2.90;;;19.80;99.90;;;;;;4915273;29;20219;-88
2023/09/14 07:20:44;;;;;;;7.33;2.80;;;19.90;99.90;;;;;;4890681;29;20208;-86
2023/09/14 07:23:52;;;;;;;5.80;3.20;;;20.00;99.90;;;;;;4878761;29;20215;-84
2023/09/14 07:59:27;;;;;;;3.27;2.30;;;20.60;99.90;;;;;;4793856;29;20714;-83
2023/09/14 08:08:22;;;;;;;2.87;2.10;;;20.90;99.90;;;;;;1375783;26;20230;-85
2023/09/14 08:12:03;;;;;;;5.10;2.60;;;20.90;99.90;;;;;;4878866;29;20205;-85
2023/09/14 08:22:54;;;;;;;1.93;1.60;;;21.40;99.90;;;;;;4972298;23;20778;-79
2023/09/14 08:25:43;;;;;;;3.97;1.73;;;21.60;99.90;;;;;;4935404;29;20198;-83
2023/09/14 08:46:06;;;;;;;;;;;;;;;;;;;;;
2023/09/14 08:49:28;;;;;;;3.53;1.30;;;21.30;99.90;;;;;;4874221;29;20205;-83
2023/09/14 08:52:12;;;;;;;2.00;1.20;;;21.40;99.90;;;;;;4910013;29;20321;-82
2023/09/14 08:54:53;;;;;;;1.43;1.10;;;21.90;99.90;;;;;;4912639;29;20360;-84
2023/09/14 08:58:04;;;;;;;2.10;1.10;;;22.30;99.90;;;;;;4897332;29;20231;-82
2023/09/14 09:00:51;;;;;;;2.57;1.20;;;22.40;99.90;;;;;;4884422;29;20513;-84
2023/09/14 09:08:25;;;;;;;;;;;;;;;;;;;;;
2023/09/14 09:11:57;;;;;;;2.93;1.10;;;22.70;99.90;;;;;;5253738;23;20238;-84
2023/09/14 09:15:05;;;;;;;1.53;1.10;;;22.90;99.90;;;;;;4942978;28;20216;-84
2023/09/14 09:18:11;;;;;;;1.40;1.00;;;22.80;99.90;;;;;;4965114;28;20321;-82
2023/09/14 09:20:41;;;;;;;1.73;1.03;;;22.70;99.90;;;;;;4953245;29;20229;-80
2023/09/14 09:43:39;;;;;;;2.50;1.00;;;22.20;99.90;;;;;;1175489;26;20596;-85
2023/09/14 09:46:21;;;;;;;2.27;1.03;;;22.40;99.90;;;;;;4952503;29;20198;-84
2023/09/14 09:50:21;;;;;;;1.80;1.10;;;22.80;99.90;;;;;;4835029;29;20202;-81
2023/09/14 09:54:31;;;;;;;5.45;1.10;;;23.90;99.90;;;;;;4751638;30;20208;-88
2023/09/14 09:57:05;;;;;;;7.07;1.50;;;24.00;99.90;;;;;;4766272;30;20245;-77
2023/09/14 09:59:50;;;;;;;4.68;1.25;;;23.90;99.90;;;;;;4768472;29;20218;-79
2023/09/14 10:03:03;;;;;;;1.50;1.00;;;23.70;99.90;;;;;;4731430;30;20237;-87
2023/09/14 10:05:45;;;;;;;1.50;1.17;;;23.40;99.90;;;;;;4730260;30;20237;-86
2023/09/14 10:08:26;;;;;;;5.13;1.40;;;22.80;99.90;;;;;;4731524;30;20717;-84
2023/09/14 10:11:04;;;;;;;2.93;1.10;;;22.80;99.90;;;;;;4730726;30;20222;-83
2023/09/14 10:13:38;;;;;;;7.13;1.90;;;22.60;99.90;;;;;;4730822;30;20214;-82
2023/09/14 11:43:38;;;;;;;1.63;1.20;;;23.00;99.90;;;;;;4918385;29;20214;-81
2023/09/14 11:47:31;;;;;;;5.53;1.80;;;22.50;99.90;;;;;;4916835;29;20243;-89
2023/09/14 11:53:17;;;;;;;3.97;1.47;;;22.70;99.90;;;;;;4879838;27;5914140;-85
2023/09/14 11:56:37;;;;;;;4.55;1.30;;;23.40;99.90;;;;;;4983174;28;20730;-87
2023/09/14 11:59:30;;;;;;;1.87;1.03;;;23.80;99.90;;;;;;5007285;28;20211;-82
2023/09/14 12:02:36;;;;;;;2.20;1.00;;;23.90;99.90;;;;;;4991012;28;20211;-87
2023/09/14 12:25:23;;;;;;;;;;;;;;;;;;;;;
2023/09/14 12:33:03;;;;;;;2.77;1.10;;;22.60;99.90;;;;;;4981697;28;20208;-83
2023/09/14 12:36:57;;;;;;;2.23;1.30;;;22.40;99.90;;;;;;5056215;22;20394;-85
2023/09/14 12:39:42;;;;;;;4.30;1.20;;;22.20;99.90;;;;;;5007066;28;20204;-83
2023/09/14 12:42:49;;;;;;;2.97;1.30;;;22.10;99.90;;;;;;5003074;28;20566;-80
2023/09/14 12:46:14;;;;;;;3.97;1.10;;;22.10;99.90;;;;;;4862094;29;20296;-84
2023/09/14 13:01:19;;;;;;;1.50;1.10;;;22.60;99.90;;;;;;4779497;30;20200;-84
2023/09/14 13:08:25;;;;;;;2.10;1.03;;;22.50;99.90;;;;;;4744378;30;20209;-84
2023/09/14 13:11:31;;;;;;;1.70;1.10;;;22.40;99.90;;;;;;4724981;30;20249;-85
2023/09/14 13:14:58;;;;;;;1.10;0.70;;;22.80;99.90;;;;;;4770775;29;20645;-87
2023/09/14 13:17:54;;;;;;;6.60;0.83;;;22.70;99.90;;;;;;5089594;22;20242;-81
2023/09/14 13:20:24;;;;;;;3.93;1.00;;;22.70;99.90;;;;;;5016989;28;20203;-82
2023/09/14 13:22:54;;;;;;;3.53;0.97;;;22.50;99.90;;;;;;5000475;28;20294;-83
2023/09/14 13:25:26;;;;;;;1.90;0.70;;;22.60;99.90;;;;;;5017538;28;20187;-82
2023/09/14 13:28:06;;;;;;;3.43;1.03;;;22.80;99.90;;;;;;5016342;28;20609;-84
2023/09/14 13:34:26;;;;;;;1.40;0.67;;;22.80;99.90;;;;;;5016120;28;20206;-81
2023/09/14 13:37:21;;;;;;;11.63;1.67;;;22.70;99.90;;;;;;5014107;28;20588;-86
2023/09/14 13:40:22;;;;;;;2.40;0.87;;;22.70;99.90;;;;;;4939289;28;20295;-86
2023/09/14 13:42:59;;;;;;;3.03;0.97;;;22.60;99.90;;;;;;4940997;28;20687;-80
2023/09/14 13:46:18;;;;;;;1.70;0.70;;;22.70;99.90;;;;;;4887799;29;20251;-82
2023/09/14 13:49:41;;;;;;;2.03;1.00;;;22.50;99.90;;;;;;4885236;28;20369;-86
2023/09/14 13:52:42;;;;;;;1.03;0.70;;;22.60;99.90;;;;;;4895759;29;20265;-82
2023/09/14 13:55:50;;;;;;;7.27;1.40;;;22.50;99.90;;;;;;4881993;29;20188;-84
2023/09/14 13:59:15;;;;;;;4.53;0.80;;;22.40;99.90;;;;;;4892686;29;20216;-87
2023/09/14 14:01:53;;;;;;;1.17;0.80;;;22.30;99.90;;;;;;4866458;29;20259;-81
2023/09/14 14:04:25;;;;;;;1.60;0.80;;;22.40;99.90;;;;;;4895746;29;20295;-79
2023/09/14 14:06:55;;;;;;;6.83;1.50;;;22.20;99.90;;;;;;4896866;29;20322;-80
2023/09/14 14:09:26;;;;;;;6.67;1.00;;;22.00;99.90;;;;;;4895775;29;20256;-82
2023/09/14 14:18:57;;;;;;;1.17;0.70;;;21.80;99.90;;;;;;5088790;22;20243;-85
2023/09/14 14:21:32;;;;;;;10.30;2.13;;;21.60;99.90;;;;;;5007691;28;20314;-84
2023/09/14 14:24:02;;;;;;;2.77;0.90;;;21.80;99.90;;;;;;4999719;28;20192;-82
2023/09/14 14:26:33;;;;;;;1.73;0.80;;;21.60;99.90;;;;;;5034318;28;20176;-80
2023/09/14 14:29:01;;;;;;;8.27;1.13;;;21.50;99.90;;;;;;4999850;28;20191;-80
2023/09/14 14:31:29;;;;;;;7.50;1.10;;;21.40;99.90;;;;;;5015927;28;20215;-79
2023/09/14 14:34:17;;;;;;;4.60;1.07;;;21.30;99.90;;;;;;5031875;28;20199;-80
2023/09/14 14:36:50;;;;;;;4.77;1.30;;;21.20;99.90;;;;;;5033130;28;20215;-78
2023/09/14 14:39:21;;;;;;;3.07;0.93;;;21.30;99.90;;;;;;5015846;28;20195;-79
2023/09/14 14:41:49;;;;;;;1.63;1.00;;;21.30;99.90;;;;;;5015203;28;20184;-81
2023/09/14 14:44:22;;;;;;;2.33;1.10;;;21.20;99.90;;;;;;4999709;28;20227;-81
2023/09/14 14:46:50;;;;;;;4.10;1.20;;;21.10;99.90;;;;;;5015199;28;20209;-79
2023/09/14 14:49:18;;;;;;;4.87;1.27;;;21.20;99.90;;;;;;5030684;28;20195;-82
2023/09/14 14:51:55;;;;;;;2.27;1.17;;;21.20;99.90;;;;;;5032738;28;20509;-84
2023/09/14 14:54:24;;;;;;;4.03;1.20;;;21.10;99.90;;;;;;5000020;28;20206;-84
2023/09/14 14:56:55;;;;;;;2.53;1.43;;;21.10;99.90;;;;;;5032340;28;20192;-84
2023/09/14 14:59:24;;;;;;;1.20;0.90;;;21.20;99.90;;;;;;5015453;28;20195;-80
2023/09/14 15:01:53;;;;;;;2.97;1.00;;;21.10;99.90;;;;;;5015098;28;20664;-84
2023/09/14 15:04:24;;;;;;;2.10;1.00;;;21.00;99.90;;;;;;5015538;28;20222;-82
2023/09/14 15:06:54;;;;;;;5.60;1.40;;;21.20;99.90;;;;;;5015655;28;20207;-83
2023/09/14 15:09:22;;;;;;;9.93;1.40;;;21.20;99.90;;;;;;5015074;28;20262;-82
2023/09/14 15:11:51;;;;;;;2.07;1.07;;;21.10;99.90;;;;;;5014892;28;20289;-78
2023/09/14 15:14:28;;;;;;;1.57;1.00;;;21.10;99.90;;;;;;5014713;28;20266;-79
2023/09/14 15:16:56;;;;;;;2.63;1.30;;;21.10;99.90;;;;;;5015484;28;20249;-84
2023/09/14 15:19:31;;;;;;;3.07;1.70;;;21.10;99.90;;;;;;5032024;28;20189;-82
2023/09/14 15:22:00;;;;;;;2.10;0.90;;;21.20;99.90;;;;;;5014756;28;20788;-81
2023/09/14 15:24:30;;;;;;;1.40;0.90;;;21.10;99.90;;;;;;5015093;28;20713;-80
2023/09/14 15:27:04;;;;;;;2.60;1.00;;;21.20;99.90;;;;;;5014095;28;20234;-80
2023/09/14 15:29:33;;;;;;;1.97;1.10;;;21.00;99.90;;;;;;5015385;28;20199;-81
2023/09/14 15:32:02;;;;;;;4.03;1.60;;;20.90;99.90;;;;;;5015651;28;20293;-80
2023/09/14 15:34:32;;;;;;;4.90;1.23;;;21.00;99.90;;;;;;5030396;28;20195;-80
2023/09/14 15:37:05;;;;;;;1.97;1.07;;;20.90;99.90;;;;;;4998455;28;20224;-81
2023/09/14 15:39:38;;;;;;;2.30;1.30;;;20.70;99.90;;;;;;5014904;28;20216;-83
2023/09/14 15:42:15;;;;;;;3.67;1.30;;;21.00;99.90;;;;;;5031642;28;20195;-84
2023/09/14 15:44:47;;;;;;;4.63;1.13;;;21.00;99.90;;;;;;5014178;28;20670;-83
2023/09/14 15:47:33;;;;;;;1.27;1.00;;;21.00;99.90;;;;;;5014701;28;20286;-85
2023/09/14 15:50:11;;;;;;;4.83;1.37;;;21.00;99.90;;;;;;4998557;28;20215;-84
2023/09/14 15:52:44;;;;;;;2.27;1.27;;;21.30;99.90;;;;;;5014550;28;20207;-83
2023/09/14 15:55:13;;;;;;;2.57;1.00;;;21.00;99.90;;;;;;5014188;28;20552;-80
2023/09/14 15:58:03;;;;;;;1.73;1.03;;;21.00;99.90;;;;;;5017175;28;20184;-84
2023/09/14 16:00:32;;;;;;;4.23;1.40;;;21.10;99.90;;;;;;4998644;28;20196;-84
2023/09/14 16:03:02;;;;;;;2.50;1.20;;;21.10;99.90;;;;;;5014543;28;20222;-83
2023/09/14 16:05:30;;;;;;;3.67;1.10;;;21.20;99.90;;;;;;5031877;28;20211;-80
2023/09/14 16:08:06;;;;;;;5.90;1.20;;;21.20;99.90;;;;;;5014744;28;20196;-80
2023/09/14 16:10:40;;;;;;;3.27;1.20;;;21.10;99.90;;;;;;4997953;28;20191;-82
2023/09/14 16:13:12;;;;;;;11.33;2.27;;;21.10;99.90;;;;;;5015460;28;20171;-81
2023/09/14 16:15:44;;;;;;;14.27;2.63;;;21.10;99.90;;;;;;5032353;28;20286;-82
2023/09/14 16:18:15;;;;;;;2.23;1.30;;;21.00;99.90;;;;;;5010578;28;20232;-83
2023/09/14 16:20:46;;;;;;;3.60;1.27;;;20.90;99.90;;;;;;5011999;28;20255;-79
2023/09/14 16:23:15;;;;;;;3.63;1.40;;;20.70;99.90;;;;;;5011461;28;20267;-82
2023/09/14 16:25:43;;;;;;;1.57;1.00;;;20.80;99.90;;;;;;5011967;28;20239;-80
2023/09/14 16:28:20;;;;;;;1.27;1.00;;;20.80;99.90;;;;;;5010599;28;20177;-80
2023/09/14 16:30:50;;;;;;;5.87;1.43;;;20.80;99.90;;;;;;5014558;28;20198;-80
2023/09/14 16:33:18;;;;;;;2.13;1.13;;;20.60;99.90;;;;;;5031831;28;20192;-80
2023/09/14 16:35:54;;;;;;;1.80;1.10;;;20.70;99.90;;;;;;5013456;28;20721;-82
2023/09/14 16:38:28;;;;;;;2.70;1.20;;;20.70;99.90;;;;;;5017668;28;20206;-82
2023/09/14 16:40:56;;;;;;;4.17;1.40;;;20.60;99.90;;;;;;5035473;28;20192;-84
2023/09/14 16:43:25;;;;;;;5.50;1.50;;;20.60;99.90;;;;;;5001415;28;20198;-81
2023/09/14 16:45:55;;;;;;;6.50;1.70;;;20.40;99.90;;;;;;5035032;28;20184;-81
2023/09/14 16:48:23;;;;;;;2.73;1.27;;;20.50;99.90;;;;;;5036013;28;20673;-81
2023/09/14 16:50:50;;;;;;;2.97;1.27;;;20.40;99.90;;;;;;5035444;28;20207;-79
2023/09/14 16:53:20;;;;;;;2.30;1.23;;;20.40;99.90;;;;;;5018503;28;20191;-80
2023/09/14 16:55:49;;;;;;;6.77;1.67;;;20.40;99.90;;;;;;5035381;28;20196;-81
2023/09/14 16:58:20;;;;;;;3.20;1.30;;;20.30;99.90;;;;;;5035499;28;20577;-80
2023/09/14 17:00:50;;;;;;;3.00;1.37;;;20.20;99.90;;;;;;5035056;28;20195;-83
2023/09/14 17:03:22;;;;;;;2.53;1.30;;;20.20;99.90;;;;;;5017276;28;20188;-81
2023/09/14 17:05:53;;;;;;;2.53;1.57;;;20.30;99.90;;;;;;5017919;28;20212;-81
2023/09/14 17:08:53;;;;;;;3.77;1.47;;;20.20;99.90;;;;;;5016074;28;20176;-79
2023/09/14 17:11:21;;;;;;;4.43;1.47;;;20.00;99.90;;;;;;5017432;28;20226;-83
2023/09/14 17:15:29;;;;;;;3.43;1.30;;;20.00;99.90;;;;;;5054070;27;1590162;-80
2023/09/14 17:18:00;;;;;;;3.47;1.70;;;19.90;99.90;;;;;;5088864;28;20186;-81
2023/09/14 17:20:30;;;;;;;2.37;1.40;;;19.80;99.90;;;;;;5083415;28;20218;-79
2023/09/14 17:23:03;;;;;;;5.87;1.43;;;19.80;99.90;;;;;;5068925;28;20186;-79
2023/09/14 17:25:34;;;;;;;4.93;1.80;;;19.70;99.90;;;;;;5068843;28;20182;-83
2023/09/14 17:28:08;;;;;;;2.50;1.33;;;19.70;99.90;;;;;;5051093;28;20213;-84
2023/09/14 17:30:36;;;;;;;4.57;1.80;;;19.60;99.90;;;;;;5068451;28;20196;-80
2023/09/14 17:33:05;;;;;;;4.17;1.60;;;19.40;99.90;;;;;;5067560;28;20561;-82
2023/09/14 17:35:34;;;;;;;3.63;1.90;;;19.40;99.90;;;;;;5067199;28;20207;-83
2023/09/14 17:38:09;;;;;;;13.27;2.50;;;19.40;99.90;;;;;;5052001;28;20194;-81
2023/09/14 17:40:51;;;;;;;4.10;1.50;;;19.30;99.90;;;;;;5053330;28;20837;-82
2023/09/14 17:43:20;;;;;;;9.23;2.17;;;19.30;99.90;;;;;;5067866;28;20201;-81
2023/09/14 17:45:50;;;;;;;3.97;1.60;;;19.30;99.90;;;;;;5067862;28;20199;-81
2023/09/14 17:48:20;;;;;;;2.87;1.40;;;19.20;99.90;;;;;;5050891;28;20190;-81
2023/09/14 17:50:56;;;;;;;5.17;2.00;;;19.10;99.90;;;;;;5067428;28;20695;-81
2023/09/14 17:53:25;;;;;;;5.10;1.70;;;19.00;99.90;;;;;;5066857;28;20197;-80
2023/09/14 17:55:58;;;;;;;3.30;1.80;;;18.90;99.90;;;;;;5068067;28;20237;-79